createdAt,value
2017-04-03T00:00:33.244Z,1019.32
2017-04-03T00:01:33.251Z,1019.32
2017-04-03T00:02:33.304Z,1019.31
2017-04-03T00:03:33.266Z,1019.34
2017-04-03T00:04:33.267Z,1019.36
2017-04-03T00:05:33.272Z,1019.37
2017-04-03T00:06:33.276Z,1019.39
2017-04-03T00:07:33.282Z,1019.39
2017-04-03T00:08:33.287Z,1019.41
2017-04-03T00:09:33.293Z,1019.41
2017-04-03T00:10:33.299Z,1019.39
2017-04-03T00:11:33.302Z,1019.38
2017-04-03T00:12:33.360Z,1019.36
2017-04-03T00:13:33.715Z,1019.36
2017-04-03T00:14:33.369Z,1019.37
2017-04-03T00:15:33.331Z,1019.37
2017-04-03T00:16:33.331Z,1019.35
2017-04-03T00:17:33.335Z,1019.34
2017-04-03T00:18:33.342Z,1019.35
2017-04-03T00:19:33.402Z,1019.4
2017-04-03T00:20:33.354Z,1019.36
2017-04-03T00:21:33.366Z,1019.37
2017-04-03T00:22:33.364Z,1019.37
2017-04-03T00:23:33.369Z,1019.37
2017-04-03T00:24:33.380Z,1019.37
2017-04-03T00:25:33.379Z,1019.37
2017-04-03T00:26:33.385Z,1019.37
2017-04-03T00:27:33.391Z,1019.39
2017-04-03T00:28:33.395Z,1019.38
2017-04-03T00:29:33.403Z,1019.34
2017-04-03T00:30:33.405Z,1019.37
2017-04-03T00:31:33.413Z,1019.35
2017-04-03T00:32:33.473Z,1019.38
2017-04-03T00:33:33.422Z,1019.34
2017-04-03T00:34:33.430Z,1019.36
2017-04-03T00:35:33.433Z,1019.37
2017-04-03T00:36:33.445Z,1019.37
2017-04-03T00:37:33.444Z,1019.37
2017-04-03T00:38:33.456Z,1019.35
2017-04-03T00:39:33.461Z,1019.34
2017-04-03T00:40:33.467Z,1019.37
2017-04-03T00:41:33.466Z,1019.36
2017-04-03T00:42:33.478Z,1019.4
2017-04-03T00:43:33.482Z,1019.39
2017-04-03T00:44:33.482Z,1019.39
2017-04-03T00:45:33.488Z,1019.38
2017-04-03T00:46:33.542Z,1019.35
2017-04-03T00:47:33.505Z,1019.41
2017-04-03T00:48:33.510Z,1019.43
2017-04-03T00:49:33.560Z,1019.43
2017-04-03T00:50:33.521Z,1019.47
2017-04-03T00:51:33.523Z,1019.44
2017-04-03T00:52:33.526Z,1019.42
2017-04-03T00:53:33.531Z,1019.4
2017-04-03T00:54:33.543Z,1019.41
2017-04-03T00:55:33.591Z,1019.41
2017-04-03T00:56:33.549Z,1019.37
2017-04-03T00:57:33.552Z,1019.43
2017-04-03T00:58:33.558Z,1019.42
2017-04-03T00:59:33.565Z,1019.43
2017-04-03T01:00:33.576Z,1019.42
2017-04-03T01:01:33.574Z,1019.42
2017-04-03T01:02:33.631Z,1019.4
2017-04-03T01:03:34.537Z,1019.43
2017-04-03T01:04:33.591Z,1019.43
2017-04-03T01:05:33.597Z,1019.42
2017-04-03T01:06:33.602Z,1019.44
2017-04-03T01:07:33.613Z,1019.46
2017-04-03T01:08:33.611Z,1019.46
2017-04-03T01:09:33.624Z,1019.42
2017-04-03T01:10:33.624Z,1019.4
2017-04-03T01:11:33.679Z,1019.44
2017-04-03T01:12:33.634Z,1019.46
2017-04-03T01:13:33.640Z,1019.46
2017-04-03T01:14:34.096Z,1019.45
2017-04-03T01:15:33.657Z,1019.45
2017-04-03T01:16:33.657Z,1019.49
2017-04-03T01:17:33.719Z,1019.49
2017-04-03T01:18:33.724Z,1019.51
2017-04-03T01:19:33.679Z,1019.51
2017-04-03T01:20:33.678Z,1019.51
2017-04-03T01:21:33.684Z,1019.52
2017-04-03T01:22:33.690Z,1019.52
2017-04-03T01:23:33.693Z,1019.52
2017-04-03T01:24:33.699Z,1019.53
2017-04-03T01:25:33.856Z,1019.52
2017-04-03T01:26:33.710Z,1019.52
2017-04-03T01:27:33.714Z,1019.53
2017-04-03T01:28:33.727Z,1019.54
2017-04-03T01:29:34.031Z,1019.51
2017-04-03T01:30:33.731Z,1019.54
2017-04-03T01:31:33.739Z,1019.51
2017-04-03T01:32:33.783Z,1019.54
2017-04-03T01:33:33.748Z,1019.56
2017-04-03T01:34:33.752Z,1019.58
2017-04-03T01:35:33.759Z,1019.59
2017-04-03T01:36:33.813Z,1019.58
2017-04-03T01:37:33.819Z,1019.59
2017-04-03T01:38:33.774Z,1019.58
2017-04-03T01:39:33.780Z,1019.56
2017-04-03T01:40:33.787Z,1019.55
2017-04-03T01:41:33.791Z,1019.54
2017-04-03T01:42:33.795Z,1019.54
2017-04-03T01:43:34.105Z,1019.53
2017-04-03T01:44:33.813Z,1019.58
2017-04-03T01:45:33.811Z,1019.6
2017-04-03T01:46:33.823Z,1019.56
2017-04-03T01:47:33.872Z,1019.58
2017-04-03T01:48:33.834Z,1019.59
2017-04-03T01:49:34.885Z,1019.58
2017-04-03T01:50:33.844Z,1019.62
2017-04-03T01:51:33.843Z,1019.65
2017-04-03T01:52:33.855Z,1019.65
2017-04-03T01:53:33.861Z,1019.67
2017-04-03T01:54:33.860Z,1019.64
2017-04-03T01:55:33.872Z,1019.65
2017-04-03T01:56:33.876Z,1019.63
2017-04-03T01:57:33.880Z,1019.66
2017-04-03T01:58:33.888Z,1019.67
2017-04-03T01:59:33.891Z,1019.68
2017-04-03T02:00:34.198Z,1019.68
2017-04-03T02:01:33.938Z,1019.67
2017-04-03T02:02:33.903Z,1019.67
2017-04-03T02:03:33.912Z,1019.65
2017-04-03T02:04:33.913Z,1019.65
2017-04-03T02:05:33.923Z,1019.61
2017-04-03T02:06:34.230Z,1019.6
2017-04-03T02:07:33.927Z,1019.62
2017-04-03T02:08:33.934Z,1019.62
2017-04-03T02:09:33.990Z,1019.63
2017-04-03T02:10:33.946Z,1019.66
2017-04-03T02:11:34.050Z,1019.69
2017-04-03T02:12:34.005Z,1019.66
2017-04-03T02:13:34.017Z,1019.64
2017-04-03T02:14:33.971Z,1019.67
2017-04-03T02:15:34.273Z,1019.69
2017-04-03T02:16:33.975Z,1019.68
2017-04-03T02:17:33.982Z,1019.71
2017-04-03T02:18:33.993Z,1019.69
2017-04-03T02:19:33.997Z,1019.71
2017-04-03T02:20:34.049Z,1019.72
2017-04-03T02:21:34.053Z,1019.71
2017-04-03T02:22:34.008Z,1019.73
2017-04-03T02:23:34.064Z,1019.73
2017-04-03T02:24:35.191Z,1019.71
2017-04-03T02:25:34.023Z,1019.74
2017-04-03T02:26:34.030Z,1019.77
2017-04-03T02:27:34.035Z,1019.79
2017-04-03T02:28:34.046Z,1019.77
2017-04-03T02:29:34.046Z,1019.76
2017-04-03T02:30:34.051Z,1019.73
2017-04-03T02:31:34.113Z,1019.76
2017-04-03T02:32:34.152Z,1019.75
2017-04-03T02:33:34.068Z,1019.74
2017-04-03T02:34:34.079Z,1019.76
2017-04-03T02:35:35.085Z,1019.74
2017-04-03T02:36:34.084Z,1019.73
2017-04-03T02:37:34.143Z,1019.73
2017-04-03T02:38:34.094Z,1019.73
2017-04-03T02:39:34.101Z,1019.73
2017-04-03T02:40:34.104Z,1019.77
2017-04-03T02:41:34.161Z,1019.74
2017-04-03T02:42:34.122Z,1019.74
2017-04-03T02:43:34.129Z,1019.76
2017-04-03T02:44:34.127Z,1019.77
2017-04-03T02:45:34.138Z,1019.75
2017-04-03T02:46:35.089Z,1019.76
2017-04-03T02:47:34.143Z,1019.72
2017-04-03T02:48:34.146Z,1019.74
2017-04-03T02:49:34.159Z,1019.75
2017-04-03T02:50:34.209Z,1019.75
2017-04-03T02:51:34.214Z,1019.78
2017-04-03T02:52:34.223Z,1019.79
2017-04-03T02:53:34.175Z,1019.82
2017-04-03T02:54:34.180Z,1019.81
2017-04-03T02:55:34.186Z,1019.8
2017-04-03T02:56:34.198Z,1019.83
2017-04-03T02:57:34.747Z,1019.85
2017-04-03T02:58:34.202Z,1019.83
2017-04-03T02:59:34.206Z,1019.85
2017-04-03T03:00:34.213Z,1019.83
2017-04-03T03:01:34.218Z,1019.87
2017-04-03T03:02:34.221Z,1019.88
2017-04-03T03:03:34.234Z,1019.86
2017-04-03T03:04:34.239Z,1019.87
2017-04-03T03:05:34.238Z,1019.9
2017-04-03T03:06:34.250Z,1019.91
2017-04-03T03:07:34.249Z,1019.88
2017-04-03T03:08:34.808Z,1019.87
2017-04-03T03:09:34.266Z,1019.87
2017-04-03T03:10:34.271Z,1019.84
2017-04-03T03:11:34.270Z,1019.89
2017-04-03T03:12:34.275Z,1019.9
2017-04-03T03:13:34.336Z,1019.86
2017-04-03T03:14:34.287Z,1019.91
2017-04-03T03:15:34.293Z,1019.92
2017-04-03T03:16:34.302Z,1019.93
2017-04-03T03:17:34.303Z,1019.97
2017-04-03T03:18:34.308Z,1019.97
2017-04-03T03:19:34.665Z,1019.93
2017-04-03T03:20:34.318Z,1019.93
2017-04-03T03:21:34.329Z,1019.92
2017-04-03T03:22:34.380Z,1019.91
2017-04-03T03:23:34.333Z,1019.92
2017-04-03T03:24:34.390Z,1019.92
2017-04-03T03:25:34.350Z,1019.87
2017-04-03T03:26:34.352Z,1019.91
2017-04-03T03:27:34.390Z,1019.91
2017-04-03T03:28:34.367Z,1019.94
2017-04-03T03:29:34.366Z,1019.95
2017-04-03T03:30:34.372Z,1019.94
2017-04-03T03:31:34.426Z,1019.95
2017-04-03T03:32:34.383Z,1019.94
2017-04-03T03:33:34.437Z,1019.93
2017-04-03T03:34:34.443Z,1019.95
2017-04-03T03:35:34.397Z,1019.92
2017-04-03T03:36:34.404Z,1019.94
2017-04-03T03:37:34.407Z,1019.97
2017-04-03T03:38:34.412Z,1019.95
2017-04-03T03:39:34.468Z,1019.97
2017-04-03T03:40:34.473Z,1019.96
2017-04-03T03:41:34.480Z,1019.97
2017-04-03T03:42:34.483Z,1019.97
2017-04-03T03:43:34.444Z,1019.97
2017-04-03T03:44:34.445Z,1019.95
2017-04-03T03:45:34.451Z,1019.95
2017-04-03T03:46:34.461Z,1019.97
2017-04-03T03:47:34.467Z,1019.99
2017-04-03T03:48:34.467Z,1019.98
2017-04-03T03:49:34.470Z,1019.99
2017-04-03T03:50:34.483Z,1019.97
2017-04-03T03:51:34.537Z,1020
2017-04-03T03:52:34.488Z,1019.98
2017-04-03T03:53:34.492Z,1019.98
2017-04-03T03:54:34.549Z,1020
2017-04-03T03:55:34.503Z,1020.01
2017-04-03T03:56:34.559Z,1019.99
2017-04-03T03:57:34.513Z,1019.99
2017-04-03T03:58:34.520Z,1020
2017-04-03T03:59:34.526Z,1019.96
2017-04-03T04:00:34.536Z,1020.01
2017-04-03T04:01:34.583Z,1019.98
2017-04-03T04:02:34.541Z,1019.97
2017-04-03T04:03:34.596Z,1020.02
2017-04-03T04:04:34.556Z,1019.94
2017-04-03T04:05:34.563Z,1020
2017-04-03T04:06:34.563Z,1019.99
2017-04-03T04:07:34.617Z,1020.02
2017-04-03T04:08:34.571Z,1020.05
2017-04-03T04:09:34.578Z,1020.01
2017-04-03T04:10:34.637Z,1020.03
2017-04-03T04:11:34.588Z,1020.07
2017-04-03T04:12:34.593Z,1020.06
2017-04-03T04:13:34.599Z,1020.05
2017-04-03T04:14:34.604Z,1020.1
2017-04-03T04:15:34.614Z,1020.08
2017-04-03T04:16:34.621Z,1020.1
2017-04-03T04:17:34.620Z,1020.04
2017-04-03T04:18:34.680Z,1020.06
2017-04-03T04:19:34.631Z,1020.08
2017-04-03T04:20:34.643Z,1020.09
2017-04-03T04:21:34.641Z,1020.08
2017-04-03T04:22:34.646Z,1020.03
2017-04-03T04:23:34.651Z,1020.07
2017-04-03T04:24:34.712Z,1020.08
2017-04-03T04:25:34.663Z,1020.07
2017-04-03T04:26:34.668Z,1020.07
2017-04-03T04:27:34.725Z,1020.08
2017-04-03T04:28:34.680Z,1020.05
2017-04-03T04:29:34.690Z,1020.06
2017-04-03T04:30:34.839Z,1020.07
2017-04-03T04:31:34.695Z,1020.09
2017-04-03T04:32:34.701Z,1020.09
2017-04-03T04:33:34.706Z,1020.09
2017-04-03T04:34:34.711Z,1020.1
2017-04-03T04:35:34.717Z,1020.08
2017-04-03T04:36:34.727Z,1020.1
2017-04-03T04:37:34.731Z,1020.09
2017-04-03T04:38:34.732Z,1020.11
2017-04-03T04:39:34.744Z,1020.11
2017-04-03T04:40:34.742Z,1020.11
2017-04-03T04:41:34.755Z,1020.13
2017-04-03T04:42:34.762Z,1020.1
2017-04-03T04:43:34.765Z,1020.12
2017-04-03T04:44:34.764Z,1020.12
2017-04-03T04:45:35.921Z,1020.13
2017-04-03T04:46:34.780Z,1020.13
2017-04-03T04:47:34.780Z,1020.14
2017-04-03T04:48:34.789Z,1020.14
2017-04-03T04:49:34.799Z,1020.18
2017-04-03T04:50:34.803Z,1020.15
2017-04-03T04:51:34.809Z,1020.2
2017-04-03T04:52:34.806Z,1020.17
2017-04-03T04:53:34.812Z,1020.15
2017-04-03T04:54:34.818Z,1020.19
2017-04-03T04:55:34.821Z,1020.18
2017-04-03T04:56:35.533Z,1020.15
2017-04-03T04:57:34.833Z,1020.18
2017-04-03T04:58:34.837Z,1020.19
2017-04-03T04:59:34.843Z,1020.22
2017-04-03T05:00:34.847Z,1020.22
2017-04-03T05:01:34.903Z,1020.23
2017-04-03T05:02:34.857Z,1020.26
2017-04-03T05:03:34.865Z,1020.29
2017-04-03T05:04:34.870Z,1020.27
2017-04-03T05:05:34.874Z,1020.3
2017-04-03T05:06:34.884Z,1020.31
2017-04-03T05:07:35.334Z,1020.3
2017-04-03T05:08:34.889Z,1020.36
2017-04-03T05:09:34.894Z,1020.38
2017-04-03T05:10:34.898Z,1020.35
2017-04-03T05:11:34.904Z,1020.37
2017-04-03T05:12:34.960Z,1020.4
2017-04-03T05:13:34.920Z,1020.39
2017-04-03T05:14:34.927Z,1020.4
2017-04-03T05:15:34.977Z,1020.42
2017-04-03T05:16:34.937Z,1020.44
2017-04-03T05:17:34.936Z,1020.45
2017-04-03T05:18:35.091Z,1020.42
2017-04-03T05:19:34.946Z,1020.48
2017-04-03T05:20:34.957Z,1020.46
2017-04-03T05:21:34.956Z,1020.48
2017-04-03T05:22:34.961Z,1020.46
2017-04-03T05:23:34.967Z,1020.46
2017-04-03T05:24:34.971Z,1020.44
2017-04-03T05:25:34.978Z,1020.43
2017-04-03T05:26:35.034Z,1020.48
2017-04-03T05:27:35.045Z,1020.47
2017-04-03T05:28:35.000Z,1020.52
2017-04-03T05:29:35.148Z,1020.51
2017-04-03T05:30:35.059Z,1020.5
2017-04-03T05:31:35.008Z,1020.52
2017-04-03T05:32:35.014Z,1020.51
2017-04-03T05:33:35.068Z,1020.52
2017-04-03T05:34:35.029Z,1020.55
2017-04-03T05:35:35.028Z,1020.51
2017-04-03T05:36:35.034Z,1020.54
2017-04-03T05:37:35.041Z,1020.53
2017-04-03T05:38:35.095Z,1020.53
2017-04-03T05:39:35.050Z,1020.53
2017-04-03T05:40:35.061Z,1020.56
2017-04-03T05:41:35.111Z,1020.59
2017-04-03T05:42:35.071Z,1020.59
2017-04-03T05:43:35.071Z,1020.58
2017-04-03T05:44:35.075Z,1020.64
2017-04-03T05:45:35.083Z,1020.61
2017-04-03T05:46:35.086Z,1020.64
2017-04-03T05:47:35.142Z,1020.69
2017-04-03T05:48:35.096Z,1020.64
2017-04-03T05:49:35.102Z,1020.69
2017-04-03T05:50:35.113Z,1020.66
2017-04-03T05:51:35.112Z,1020.68
2017-04-03T05:52:35.119Z,1020.72
2017-04-03T05:53:35.123Z,1020.73
2017-04-03T05:54:35.177Z,1020.74
2017-04-03T05:55:35.183Z,1020.75
2017-04-03T05:56:35.144Z,1020.78
2017-04-03T05:57:35.150Z,1020.76
2017-04-03T05:58:35.198Z,1020.8
2017-04-03T05:59:35.158Z,1020.79
2017-04-03T06:00:35.159Z,1020.81
2017-04-03T06:01:35.165Z,1020.81
2017-04-03T06:02:35.221Z,1020.8
2017-04-03T06:03:35.183Z,1020.8
2017-04-03T06:04:35.179Z,1020.85
2017-04-03T06:05:35.191Z,1020.85
2017-04-03T06:06:35.191Z,1020.86
2017-04-03T06:07:35.196Z,1020.87
2017-04-03T06:08:35.202Z,1020.88
2017-04-03T06:09:35.213Z,1020.88
2017-04-03T06:10:35.218Z,1020.93
2017-04-03T06:11:35.222Z,1020.93
2017-04-03T06:12:35.221Z,1020.92
2017-04-03T06:13:35.283Z,1020.9
2017-04-03T06:14:35.233Z,1020.93
2017-04-03T06:15:35.236Z,1020.92
2017-04-03T06:16:35.299Z,1020.96
2017-04-03T06:17:35.247Z,1020.94
2017-04-03T06:18:35.254Z,1020.99
2017-04-03T06:19:35.264Z,1021.01
2017-04-03T06:20:35.314Z,1021
2017-04-03T06:21:35.269Z,1020.97
2017-04-03T06:22:35.275Z,1020.96
2017-04-03T06:23:35.280Z,1020.96
2017-04-03T06:24:35.335Z,1021
2017-04-03T06:25:35.291Z,1021
2017-04-03T06:26:35.295Z,1021.02
2017-04-03T06:27:35.300Z,1021.02
2017-04-03T06:28:35.311Z,1021.01
2017-04-03T06:29:35.313Z,1021
2017-04-03T06:30:35.323Z,1021.04
2017-04-03T06:31:35.326Z,1021.02
2017-04-03T06:32:35.330Z,1021.05
2017-04-03T06:33:35.332Z,1021.08
2017-04-03T06:34:35.387Z,1021.04
2017-04-03T06:35:35.343Z,1021.12
2017-04-03T06:36:35.396Z,1021.12
2017-04-03T06:37:35.352Z,1021.13
2017-04-03T06:38:35.363Z,1021.15
2017-04-03T06:39:35.363Z,1021.17
2017-04-03T06:40:35.367Z,1021.18
2017-04-03T06:41:35.372Z,1021.16
2017-04-03T06:42:35.432Z,1021.15
2017-04-03T06:43:35.434Z,1021.17
2017-04-03T06:44:35.444Z,1021.12
2017-04-03T06:45:35.394Z,1021.15
2017-04-03T06:46:35.403Z,1021.11
2017-04-03T06:47:35.405Z,1021.13
2017-04-03T06:48:35.409Z,1021.12
2017-04-03T06:49:35.464Z,1021.16
2017-04-03T06:50:35.471Z,1021.13
2017-04-03T06:51:35.425Z,1021.13
2017-04-03T06:52:35.428Z,1021.15
2017-04-03T06:53:35.490Z,1021.15
2017-04-03T06:54:35.441Z,1021.18
2017-04-03T06:55:35.445Z,1021.17
2017-04-03T06:56:35.501Z,1021.17
2017-04-03T06:57:35.462Z,1021.17
2017-04-03T06:58:35.517Z,1021.15
2017-04-03T06:59:36.568Z,1021.18
2017-04-03T07:00:35.471Z,1021.17
2017-04-03T07:01:35.483Z,1021.16
2017-04-03T07:02:35.482Z,1021.12
2017-04-03T07:04:35.497Z,1021.15
2017-04-03T07:05:35.497Z,1021.12
2017-04-03T07:06:35.552Z,1021.15
2017-04-03T07:07:35.507Z,1021.16
2017-04-03T07:08:35.514Z,1021.14
2017-04-03T07:09:35.518Z,1021.2
2017-04-03T07:10:36.423Z,1021.17
2017-04-03T07:11:35.529Z,1021.22
2017-04-03T07:12:35.633Z,1021.2
2017-04-03T07:13:35.690Z,1021.23
2017-04-03T07:14:35.599Z,1021.22
2017-04-03T07:15:35.555Z,1021.21
2017-04-03T07:16:35.554Z,1021.25
2017-04-03T07:17:35.557Z,1021.25
2017-04-03T07:18:35.571Z,1021.25
2017-04-03T07:19:35.570Z,1021.23
2017-04-03T07:20:35.576Z,1021.23
2017-04-03T07:21:36.481Z,1021.21
2017-04-03T07:22:35.636Z,1021.26
2017-04-03T07:23:35.590Z,1021.25
2017-04-03T07:24:35.597Z,1021.31
2017-04-03T07:25:35.601Z,1021.29
2017-04-03T07:26:35.612Z,1021.25
2017-04-03T07:27:35.614Z,1021.27
2017-04-03T07:28:35.622Z,1021.28
2017-04-03T07:29:35.672Z,1021.28
2017-04-03T07:30:35.679Z,1021.3
2017-04-03T07:31:35.634Z,1021.29
2017-04-03T07:32:36.452Z,1021.29
2017-04-03T07:33:35.644Z,1021.32
2017-04-03T07:34:35.654Z,1021.29
2017-04-03T07:35:35.653Z,1021.38
2017-04-03T07:36:35.658Z,1021.34
2017-04-03T07:37:35.715Z,1021.33
2017-04-03T07:38:35.975Z,1021.34
2017-04-03T07:39:35.675Z,1021.33
2017-04-03T07:40:35.679Z,1021.34
2017-04-03T07:41:35.694Z,1021.32
2017-04-03T07:42:35.696Z,1021.35
2017-04-03T07:43:37.054Z,1021.34
2017-04-03T07:44:35.706Z,1021.36
2017-04-03T07:45:35.707Z,1021.35
2017-04-03T07:46:35.720Z,1021.33
2017-04-03T07:47:35.717Z,1021.38
2017-04-03T07:48:35.773Z,1021.36
2017-04-03T07:49:35.729Z,1021.39
2017-04-03T07:50:35.732Z,1021.39
2017-04-03T07:51:35.737Z,1021.39
2017-04-03T07:52:35.794Z,1021.42
2017-04-03T07:53:35.750Z,1021.44
2017-04-03T07:54:36.260Z,1021.42
2017-04-03T07:55:35.759Z,1021.39
2017-04-03T07:56:35.770Z,1021.44
2017-04-03T07:57:35.819Z,1021.4
2017-04-03T07:58:35.817Z,1021.38
2017-04-03T07:59:35.780Z,1021.39
2017-04-03T08:00:35.786Z,1021.41
2017-04-03T08:01:35.795Z,1021.4
2017-04-03T08:02:35.802Z,1021.37
2017-04-03T08:03:35.851Z,1021.39
2017-04-03T08:04:35.807Z,1021.39
2017-04-03T08:05:36.412Z,1021.44
2017-04-03T08:06:35.820Z,1021.42
2017-04-03T08:07:35.822Z,1021.42
2017-04-03T08:08:35.827Z,1021.41
2017-04-03T08:09:35.881Z,1021.38
2017-04-03T08:10:35.836Z,1021.42
2017-04-03T08:11:35.843Z,1021.43
2017-04-03T08:12:35.848Z,1021.42
2017-04-03T08:13:35.858Z,1021.4
2017-04-03T08:14:35.860Z,1021.45
2017-04-03T08:15:35.870Z,1021.41
2017-04-03T08:16:36.324Z,1021.44
2017-04-03T08:17:35.924Z,1021.43
2017-04-03T08:18:35.885Z,1021.42
2017-04-03T08:19:35.884Z,1021.43
2017-04-03T08:20:35.890Z,1021.47
2017-04-03T08:21:35.945Z,1021.43
2017-04-03T08:22:35.906Z,1021.4
2017-04-03T08:23:35.911Z,1021.4
2017-04-03T08:24:35.961Z,1021.46
2017-04-03T08:25:35.966Z,1021.44
2017-04-03T08:26:35.978Z,1021.49
2017-04-03T08:27:36.426Z,1021.5
2017-04-03T08:28:35.932Z,1021.5
2017-04-03T08:29:35.939Z,1021.49
2017-04-03T08:30:35.946Z,1021.55
2017-04-03T08:31:35.997Z,1021.54
2017-04-03T08:32:35.953Z,1021.53
2017-04-03T08:33:35.958Z,1021.53
2017-04-03T08:34:35.968Z,1021.53
2017-04-03T08:35:36.019Z,1021.55
2017-04-03T08:36:35.980Z,1021.55
2017-04-03T08:37:35.987Z,1021.55
2017-04-03T08:38:36.185Z,1021.56
2017-04-03T08:39:35.989Z,1021.54
2017-04-03T08:40:35.995Z,1021.57
2017-04-03T08:41:36.055Z,1021.57
2017-04-03T08:42:36.010Z,1021.56
2017-04-03T08:43:36.062Z,1021.6
2017-04-03T08:44:36.021Z,1021.58
2017-04-03T08:45:36.021Z,1021.6
2017-04-03T08:46:36.028Z,1021.62
2017-04-03T08:47:36.032Z,1021.6
2017-04-03T08:48:36.093Z,1021.65
2017-04-03T08:49:36.147Z,1021.67
2017-04-03T08:50:36.052Z,1021.7
2017-04-03T08:51:36.053Z,1021.68
2017-04-03T08:52:36.064Z,1021.69
2017-04-03T08:53:36.064Z,1021.67
2017-04-03T08:54:36.070Z,1021.71
2017-04-03T08:55:36.075Z,1021.68
2017-04-03T08:56:36.085Z,1021.71
2017-04-03T08:57:36.135Z,1021.72
2017-04-03T08:58:36.093Z,1021.71
2017-04-03T08:59:36.701Z,1021.69
2017-04-03T09:00:36.600Z,1021.72
2017-04-03T09:01:36.106Z,1021.73
2017-04-03T09:02:36.118Z,1021.74
2017-04-03T09:03:36.122Z,1021.8
2017-04-03T09:04:36.127Z,1021.82
2017-04-03T09:05:36.181Z,1021.82
2017-04-03T09:06:36.189Z,1021.83
2017-04-03T09:07:36.193Z,1021.83
2017-04-03T09:08:36.197Z,1021.82
2017-04-03T09:09:36.154Z,1021.86
2017-04-03T09:10:36.204Z,1021.85
2017-04-03T09:11:36.961Z,1021.85
2017-04-03T09:12:36.216Z,1021.81
2017-04-03T09:13:36.171Z,1021.85
2017-04-03T09:14:36.176Z,1021.87
2017-04-03T09:15:36.181Z,1021.89
2017-04-03T09:16:36.187Z,1021.86
2017-04-03T09:17:36.193Z,1021.87
2017-04-03T09:18:36.203Z,1021.9
2017-04-03T09:19:36.204Z,1021.87
2017-04-03T09:20:36.214Z,1021.91
2017-04-03T09:21:36.214Z,1021.93
2017-04-03T09:22:36.921Z,1021.95
2017-04-03T09:23:36.275Z,1021.91
2017-04-03T09:24:36.236Z,1021.94
2017-04-03T09:25:36.241Z,1021.92
2017-04-03T09:26:36.292Z,1021.96
2017-04-03T09:27:36.247Z,1021.97
2017-04-03T09:28:36.252Z,1021.96
2017-04-03T09:29:36.262Z,1021.94
2017-04-03T09:30:36.311Z,1021.97
2017-04-03T09:31:36.274Z,1021.98
2017-04-03T09:32:36.326Z,1022.02
2017-04-03T09:33:37.035Z,1021.99
2017-04-03T09:34:36.284Z,1021.98
2017-04-03T09:35:36.292Z,1021.97
2017-04-03T09:36:36.294Z,1021.95
2017-04-03T09:37:36.304Z,1021.97
2017-04-03T09:38:36.306Z,1022
2017-04-03T09:39:36.320Z,1022.01
2017-04-03T09:40:36.317Z,1022
2017-04-03T09:41:36.321Z,1021.96
2017-04-03T09:42:36.329Z,1021.98
2017-04-03T09:43:36.332Z,1021.99
2017-04-03T09:44:37.090Z,1022
2017-04-03T09:45:36.344Z,1021.98
2017-04-03T09:46:36.354Z,1021.96
2017-04-03T09:47:36.705Z,1021.92
2017-04-03T09:48:36.360Z,1021.91
2017-04-03T09:49:36.372Z,1021.93
2017-04-03T09:50:36.370Z,1021.95
2017-04-03T09:51:36.376Z,1021.9
2017-04-03T09:52:36.388Z,1021.92
2017-04-03T09:53:36.388Z,1021.86
2017-04-03T09:54:36.397Z,1021.89
2017-04-03T09:55:36.899Z,1021.86
2017-04-03T09:56:36.404Z,1021.85
2017-04-03T09:57:36.417Z,1021.83
2017-04-03T09:58:36.415Z,1021.81
2017-04-03T09:59:36.427Z,1021.8
2017-04-03T10:00:36.432Z,1021.82
2017-04-03T10:01:36.433Z,1021.82
2017-04-03T10:02:36.488Z,1021.87
2017-04-03T10:03:36.493Z,1021.88
2017-04-03T10:04:36.447Z,1021.87
2017-04-03T10:05:36.454Z,1021.9
2017-04-03T10:06:36.910Z,1021.88
2017-04-03T10:07:36.465Z,1021.84
2017-04-03T10:08:36.478Z,1021.85
2017-04-03T10:09:36.528Z,1021.84
2017-04-03T10:10:36.485Z,1021.86
2017-04-03T10:11:36.489Z,1021.85
2017-04-03T10:12:36.495Z,1021.81
2017-04-03T10:13:36.500Z,1021.82
2017-04-03T10:14:36.505Z,1021.79
2017-04-03T10:15:36.513Z,1021.78
2017-04-03T10:16:36.570Z,1021.81
2017-04-03T10:17:36.773Z,1021.78
2017-04-03T10:18:36.529Z,1021.77
2017-04-03T10:19:36.536Z,1021.76
2017-04-03T10:20:36.539Z,1021.77
2017-04-03T10:21:36.545Z,1021.8
2017-04-03T10:22:36.558Z,1021.76
2017-04-03T10:23:36.558Z,1021.76
2017-04-03T10:24:36.564Z,1021.79
2017-04-03T10:25:36.575Z,1021.82
2017-04-03T10:26:36.576Z,1021.82
2017-04-03T10:27:36.629Z,1021.83
2017-04-03T10:28:36.943Z,1021.82
2017-04-03T10:29:36.599Z,1021.83
2017-04-03T10:30:36.700Z,1021.83
2017-04-03T10:31:36.655Z,1021.78
2017-04-03T10:32:36.660Z,1021.78
2017-04-03T10:33:36.617Z,1021.81
2017-04-03T10:34:36.628Z,1021.82
2017-04-03T10:35:36.627Z,1021.81
2017-04-03T10:36:36.635Z,1021.82
2017-04-03T10:37:36.640Z,1021.82
2017-04-03T10:38:36.645Z,1021.8
2017-04-03T10:39:36.953Z,1021.81
2017-04-03T10:40:36.663Z,1021.81
2017-04-03T10:41:36.715Z,1021.8
2017-04-03T10:42:36.670Z,1021.82
2017-04-03T10:43:36.724Z,1021.77
2017-04-03T10:44:36.682Z,1021.74
2017-04-03T10:45:36.687Z,1021.76
2017-04-03T10:46:36.746Z,1021.77
2017-04-03T10:47:36.757Z,1021.74
2017-04-03T10:48:36.707Z,1021.73
2017-04-03T10:49:36.718Z,1021.74
2017-04-03T10:50:37.019Z,1021.72
2017-04-03T10:51:36.724Z,1021.73
2017-04-03T10:52:36.731Z,1021.72
2017-04-03T10:53:36.735Z,1021.66
2017-04-03T10:54:36.793Z,1021.66
2017-04-03T10:55:36.748Z,1021.66
2017-04-03T10:56:36.752Z,1021.61
2017-04-03T10:57:36.760Z,1021.6
2017-04-03T10:58:36.772Z,1021.62
2017-04-03T10:59:36.778Z,1021.54
2017-04-03T11:00:36.776Z,1021.58
2017-04-03T11:01:36.935Z,1021.56
2017-04-03T11:02:36.790Z,1021.6
2017-04-03T11:03:36.796Z,1021.55
2017-04-03T11:04:36.807Z,1021.55
2017-04-03T11:05:36.815Z,1021.58
2017-04-03T11:06:36.815Z,1021.59
2017-04-03T11:07:36.820Z,1021.56
2017-04-03T11:08:36.831Z,1021.56
2017-04-03T11:09:36.883Z,1021.51
2017-04-03T11:10:36.894Z,1021.49
2017-04-03T11:11:36.844Z,1021.52
2017-04-03T11:12:37.106Z,1021.48
2017-04-03T11:13:36.854Z,1021.48
2017-04-03T11:14:36.862Z,1021.45
2017-04-03T11:15:36.869Z,1021.4
2017-04-03T11:16:36.879Z,1021.46
2017-04-03T11:17:36.886Z,1021.46
2017-04-03T11:18:36.886Z,1021.44
2017-04-03T11:19:36.947Z,1021.46
2017-04-03T11:20:36.904Z,1021.44
2017-04-03T11:21:36.904Z,1021.42
2017-04-03T11:22:36.909Z,1021.43
2017-04-03T11:23:37.416Z,1021.39
2017-04-03T11:24:36.928Z,1021.4
2017-04-03T11:25:36.929Z,1021.35
2017-04-03T11:26:36.932Z,1021.31
2017-04-03T11:27:36.938Z,1021.32
2017-04-03T11:28:36.946Z,1021.34
2017-04-03T11:29:36.966Z,1021.31
2017-04-03T11:30:36.962Z,1021.3
2017-04-03T11:31:37.019Z,1021.35
2017-04-03T11:32:36.969Z,1021.33
2017-04-03T11:33:37.025Z,1021.33
2017-04-03T11:34:37.387Z,1021.32
2017-04-03T11:35:37.037Z,1021.31
2017-04-03T11:36:37.042Z,1021.34
2017-04-03T11:37:37.002Z,1021.31
2017-04-03T11:38:37.012Z,1021.24
2017-04-03T11:39:37.018Z,1021.23
2017-04-03T11:40:37.017Z,1021.2
2017-04-03T11:41:37.027Z,1021.21
2017-04-03T11:42:37.029Z,1021.24
2017-04-03T11:43:37.084Z,1021.18
2017-04-03T11:44:37.043Z,1021.24
2017-04-03T11:45:37.347Z,1021.2
2017-04-03T11:46:37.103Z,1021.23
2017-04-03T11:47:37.059Z,1021.17
2017-04-03T11:48:37.065Z,1021.18
2017-04-03T11:49:37.071Z,1021.19
2017-04-03T11:50:37.078Z,1021.14
2017-04-03T11:51:37.083Z,1021.21
2017-04-03T11:52:37.140Z,1021.17
2017-04-03T11:53:37.094Z,1021.18
2017-04-03T11:54:37.101Z,1021.18
2017-04-03T11:55:37.112Z,1021.16
2017-04-03T11:56:37.366Z,1021.14
2017-04-03T11:57:37.120Z,1021.14
2017-04-03T11:58:37.125Z,1021.11
2017-04-03T11:59:37.135Z,1020.96
2017-04-03T12:00:37.137Z,1021.08
2017-04-03T12:01:37.192Z,1021.04
2017-04-03T12:02:37.199Z,1021.09
2017-04-03T12:03:37.206Z,1021.09
2017-04-03T12:04:37.161Z,1021.04
2017-04-03T12:05:37.167Z,1021.06
2017-04-03T12:06:37.178Z,1021.06
2017-04-03T12:07:37.630Z,1021.05
2017-04-03T12:08:37.190Z,1021.07
2017-04-03T12:09:37.191Z,1021.05